createdAt,value
2018-06-06T00:02:04.408Z,19.50
2018-06-06T00:04:31.387Z,19.37
2018-06-06T00:06:58.393Z,19.90
2018-06-06T00:09:25.349Z,18.80
2018-06-06T00:11:52.324Z,19.17
2018-06-06T00:14:19.323Z,19.57
2018-06-06T00:16:46.342Z,17.73
2018-06-06T00:19:13.461Z,23.00
2018-06-06T00:21:40.456Z,20.50
2018-06-06T00:24:07.484Z,19.90
2018-06-06T00:26:34.579Z,19.17
2018-06-06T00:29:01.580Z,20.07
2018-06-06T00:31:28.592Z,19.83
2018-06-06T00:33:55.604Z,19.50
2018-06-06T00:36:22.616Z,20.13
2018-06-06T00:38:49.591Z,18.53
2018-06-06T00:41:16.573Z,19.47
2018-06-06T00:43:43.573Z,23.03
2018-06-06T00:46:10.612Z,20.23
2018-06-06T00:48:37.705Z,20.60
2018-06-06T00:51:04.682Z,18.20
2018-06-06T00:53:31.720Z,19.50
2018-06-06T00:55:58.694Z,19.10
2018-06-06T00:58:25.711Z,18.77
2018-06-06T01:00:52.742Z,19.23
2018-06-06T01:03:19.723Z,21.20
2018-06-06T01:05:46.702Z,21.17
2018-06-06T01:08:13.732Z,19.67
2018-06-06T01:10:40.809Z,20.13
2018-06-06T01:13:07.766Z,20.93
2018-06-06T01:15:34.869Z,21.23
2018-06-06T01:18:01.859Z,22.10
2018-06-06T01:20:28.871Z,19.40
2018-06-06T01:22:55.857Z,20.60
2018-06-06T01:25:22.860Z,20.40
2018-06-06T01:27:49.886Z,20.40
2018-06-06T01:30:16.940Z,21.63
2018-06-06T01:32:43.930Z,20.10
2018-06-06T01:35:10.938Z,20.87
2018-06-06T01:37:38.004Z,19.60
2018-06-06T01:40:05.067Z,19.53
2018-06-06T01:42:32.073Z,20.83
2018-06-06T01:44:59.093Z,20.10
2018-06-06T01:47:26.105Z,21.40
2018-06-06T01:49:53.055Z,20.00
2018-06-06T01:52:20.103Z,19.03
2018-06-06T01:54:47.076Z,22.97
2018-06-06T01:57:14.060Z,20.90
2018-06-06T01:59:41.063Z,20.93
2018-06-06T02:02:08.065Z,20.60
2018-06-06T02:04:35.060Z,20.87
2018-06-06T02:07:02.043Z,25.47
2018-06-06T02:09:29.046Z,21.27
2018-06-06T02:11:55.995Z,24.83
2018-06-06T02:14:23.023Z,19.90
2018-06-06T02:16:49.986Z,19.60
2018-06-06T02:19:17.013Z,23.73
2018-06-06T02:21:44.083Z,19.57
2018-06-06T02:24:11.057Z,20.40
2018-06-06T02:26:38.073Z,21.13
2018-06-06T02:29:05.050Z,22.07
2018-06-06T02:31:32.040Z,22.17
2018-06-06T02:33:59.084Z,20.43
2018-06-06T02:36:26.097Z,22.93
2018-06-06T02:38:53.088Z,22.93
2018-06-06T02:41:20.197Z,22.77
2018-06-06T02:43:47.208Z,19.33
2018-06-06T02:46:14.197Z,22.03
2018-06-06T02:48:41.210Z,20.90
2018-06-06T02:51:08.187Z,21.90
2018-06-06T02:53:35.172Z,24.63
2018-06-06T02:56:02.222Z,20.87
2018-06-06T02:58:29.195Z,20.17
2018-06-06T03:00:56.182Z,19.77
2018-06-06T03:03:23.164Z,21.13
2018-06-06T03:05:50.113Z,20.80
2018-06-06T03:08:17.133Z,21.87
2018-06-06T03:10:44.104Z,19.77
2018-06-06T03:13:11.134Z,21.30
2018-06-06T03:15:38.130Z,20.87
2018-06-06T03:18:05.110Z,19.87
2018-06-06T03:20:32.097Z,18.57
2018-06-06T03:22:59.108Z,18.70
2018-06-06T03:25:26.189Z,23.37
2018-06-06T03:27:53.173Z,19.37
2018-06-06T03:30:20.160Z,18.43
2018-06-06T03:32:47.171Z,16.53
2018-06-06T03:35:14.194Z,19.30
2018-06-06T03:37:41.182Z,19.90
2018-06-06T03:40:08.183Z,21.03
2018-06-06T03:42:35.184Z,19.27
2018-06-06T03:45:02.178Z,19.80
2018-06-06T03:47:29.195Z,18.17
2018-06-06T03:49:56.220Z,19.07
2018-06-06T03:52:23.259Z,22.43
2018-06-06T03:54:50.272Z,17.43
2018-06-06T03:57:17.263Z,19.70
2018-06-06T03:59:44.332Z,20.47
2018-06-06T04:02:11.408Z,18.90
2018-06-06T04:04:38.424Z,18.50
2018-06-06T04:07:05.436Z,19.83
2018-06-06T04:09:32.416Z,17.70
2018-06-06T04:11:59.462Z,19.40
2018-06-06T04:14:26.449Z,19.13
2018-06-06T04:33:52.403Z,19.10
2018-06-06T04:36:19.392Z,19.63
2018-06-06T04:38:46.372Z,18.77
2018-06-06T04:41:13.357Z,20.93
2018-06-06T04:43:40.368Z,17.90
2018-06-06T04:46:07.439Z,18.67
2018-06-06T04:48:34.703Z,22.63
2018-06-06T04:51:01.871Z,20.80
2018-06-06T04:53:29.079Z,19.77
2018-06-06T04:55:56.511Z,22.67
2018-06-06T04:58:23.809Z,30.73
2018-06-06T05:00:51.460Z,23.60
2018-06-06T05:03:18.712Z,22.13
2018-06-06T05:05:46.154Z,21.03
2018-06-06T05:08:13.246Z,19.03
2018-06-06T05:10:40.682Z,20.33
2018-06-06T05:13:07.825Z,19.10
2018-06-06T05:15:34.907Z,21.20
2018-06-06T05:18:02.973Z,19.00
2018-06-06T05:20:30.177Z,20.67
2018-06-06T05:22:57.165Z,23.10
2018-06-06T05:25:24.215Z,26.40
2018-06-06T05:27:51.526Z,23.57
2018-06-06T05:30:19.152Z,17.67
2018-06-06T05:32:46.587Z,20.80
2018-06-06T05:35:13.897Z,20.40
2018-06-06T05:37:41.609Z,23.60
2018-06-06T05:40:08.729Z,17.77
2018-06-06T05:42:37.810Z,19.00
2018-06-06T05:45:04.989Z,19.50
2018-06-06T05:47:32.290Z,18.63
2018-06-06T05:49:59.956Z,23.60
2018-06-06T05:52:27.606Z,20.53
2018-06-06T05:54:54.690Z,19.43
2018-06-06T05:57:21.769Z,19.33
2018-06-06T05:59:49.409Z,18.43
2018-06-06T06:02:16.462Z,21.10
2018-06-06T06:04:44.669Z,20.07
2018-06-06T06:07:11.748Z,18.23
2018-06-06T06:09:38.916Z,18.40
2018-06-06T06:12:06.020Z,17.57
2018-06-06T06:14:33.073Z,19.43
2018-06-06T06:17:00.144Z,19.37
2018-06-06T06:19:27.236Z,19.80
2018-06-06T06:21:54.305Z,20.17
2018-06-06T06:24:21.876Z,17.87
2018-06-06T06:26:48.920Z,19.60
2018-06-06T06:29:15.948Z,19.00
2018-06-06T06:31:43.120Z,20.33
2018-06-06T06:34:10.258Z,18.33
2018-06-06T06:36:38.388Z,17.67
2018-06-06T06:39:07.028Z,19.63
2018-06-06T06:41:34.532Z,19.20
2018-06-06T06:44:01.634Z,20.43
2018-06-06T06:46:30.893Z,22.90
2018-06-06T06:49:02.202Z,20.33
2018-06-06T06:51:29.620Z,20.83
2018-06-06T06:53:57.380Z,24.43
2018-06-06T06:56:24.611Z,22.73
2018-06-06T06:58:53.830Z,21.97
2018-06-06T07:01:21.006Z,19.90
2018-06-06T07:03:48.220Z,21.73
2018-06-06T07:06:15.307Z,20.30
2018-06-06T07:08:42.462Z,20.30
2018-06-06T07:11:09.616Z,18.93
2018-06-06T07:13:36.986Z,20.37
2018-06-06T07:16:04.194Z,24.10
2018-06-06T07:18:31.329Z,18.83
2018-06-06T07:20:58.492Z,18.80
2018-06-06T07:23:25.589Z,19.53
2018-06-06T07:25:52.642Z,23.33
2018-06-06T07:28:19.676Z,23.13
2018-06-06T07:30:46.754Z,19.57
2018-06-06T07:33:14.074Z,19.37
2018-06-06T07:35:41.854Z,21.67
2018-06-06T07:38:09.700Z,20.83
2018-06-06T07:40:36.861Z,21.33
2018-06-06T07:43:04.079Z,18.60
2018-06-06T07:45:31.202Z,19.80
2018-06-06T07:47:58.211Z,27.67
2018-06-06T07:50:25.957Z,18.73
2018-06-06T07:52:53.891Z,19.40
2018-06-06T07:55:21.300Z,20.07
2018-06-06T07:57:48.350Z,24.93
2018-06-06T08:00:15.581Z,19.70
2018-06-06T08:02:42.648Z,20.40
2018-06-06T08:05:09.885Z,19.40
2018-06-06T08:07:36.980Z,22.90
2018-06-06T08:10:04.130Z,19.43
2018-06-06T08:12:31.287Z,20.03
2018-06-06T08:14:58.327Z,18.73
2018-06-06T08:17:25.428Z,20.73
2018-06-06T08:19:52.472Z,20.33
2018-06-06T08:22:19.593Z,22.10
2018-06-06T08:24:46.970Z,22.57
2018-06-06T08:27:14.120Z,23.00
2018-06-06T08:29:41.185Z,19.33
2018-06-06T08:32:08.256Z,20.43
2018-06-06T08:34:35.382Z,21.13
2018-06-06T08:37:02.415Z,22.50
2018-06-06T08:39:29.510Z,21.70
2018-06-06T08:41:56.904Z,20.30
2018-06-06T08:44:24.001Z,19.80
2018-06-06T08:46:51.144Z,22.33
2018-06-06T08:49:19.328Z,20.80
2018-06-06T08:51:46.623Z,19.97
2018-06-06T08:54:13.714Z,23.07
2018-06-06T08:56:40.836Z,24.30
2018-06-06T08:59:08.978Z,24.40
2018-06-06T09:01:36.052Z,21.63
2018-06-06T09:04:03.307Z,20.47
2018-06-06T09:06:30.761Z,19.90
2018-06-06T09:08:58.282Z,21.03
2018-06-06T09:11:25.440Z,21.07
2018-06-06T09:13:53.254Z,20.67
2018-06-06T09:16:21.034Z,20.17
2018-06-06T09:18:49.492Z,19.03
2018-06-06T09:21:17.030Z,21.40
2018-06-06T09:23:44.620Z,20.70
2018-06-06T09:26:12.348Z,22.00
2018-06-06T09:28:40.168Z,19.53
2018-06-06T09:31:07.399Z,24.27
2018-06-06T09:33:36.260Z,20.67
2018-06-06T09:36:03.513Z,21.33
2018-06-06T09:38:31.536Z,20.63
2018-06-06T09:40:58.710Z,22.23
2018-06-06T09:43:25.945Z,22.53
2018-06-06T09:45:53.138Z,22.67
2018-06-06T09:48:21.775Z,24.83
2018-06-06T09:50:48.953Z,24.57
2018-06-06T09:53:16.164Z,21.53
2018-06-06T09:55:43.392Z,22.00
2018-06-06T09:58:12.113Z,20.20
2018-06-06T10:00:46.526Z,21.67
2018-06-06T10:03:13.647Z,21.67
2018-06-06T10:05:40.844Z,22.57
2018-06-06T10:08:08.070Z,20.17
2018-06-06T10:10:35.204Z,20.17
2018-06-06T10:13:02.381Z,21.13
2018-06-06T10:15:30.105Z,22.33
2018-06-06T10:17:57.176Z,20.20
2018-06-06T10:20:25.137Z,23.00
2018-06-06T10:22:52.270Z,21.90
2018-06-06T10:25:19.408Z,22.93
2018-06-06T10:27:46.557Z,23.87
2018-06-06T10:30:13.691Z,22.10
2018-06-06T10:32:40.921Z,22.57
2018-06-06T10:35:08.125Z,29.63
2018-06-06T10:37:35.325Z,21.80
2018-06-06T10:40:02.477Z,24.13
2018-06-06T10:42:29.764Z,23.20
2018-06-06T10:44:57.003Z,21.53
2018-06-06T10:47:24.251Z,21.07
2018-06-06T10:49:51.497Z,23.87
2018-06-06T10:52:19.050Z,20.70
2018-06-06T10:54:46.304Z,20.10
2018-06-06T10:57:13.760Z,20.53
2018-06-06T10:59:41.019Z,20.33
2018-06-06T11:02:08.340Z,21.20
2018-06-06T11:04:35.477Z,21.40
2018-06-06T11:07:02.651Z,20.87
2018-06-06T11:09:29.852Z,22.80
2018-06-06T11:11:57.485Z,21.63
2018-06-06T11:14:24.554Z,22.67
2018-06-06T11:16:52.137Z,21.60
2018-06-06T11:19:19.753Z,21.23
2018-06-06T11:21:46.890Z,21.23
2018-06-06T11:24:14.160Z,22.90
2018-06-06T11:26:41.251Z,20.93
2018-06-06T11:29:08.391Z,20.60
2018-06-06T11:31:35.552Z,22.20
2018-06-06T11:34:02.668Z,20.67
2018-06-06T11:36:29.769Z,21.20
2018-06-06T11:38:56.845Z,21.03
2018-06-06T11:41:24.884Z,20.70
2018-06-06T11:43:51.965Z,22.80
2018-06-06T11:46:19.080Z,20.33
2018-06-06T11:48:46.216Z,22.83
2018-06-06T11:51:13.484Z,21.50
2018-06-06T11:53:40.703Z,20.00
2018-06-06T11:56:07.940Z,20.20
2018-06-06T11:58:35.873Z,19.23
2018-06-06T12:01:03.388Z,20.90
2018-06-06T12:03:30.561Z,19.27
2018-06-06T12:05:57.643Z,20.20
2018-06-06T12:08:24.761Z,21.17
2018-06-06T12:10:51.860Z,20.37
2018-06-06T12:13:19.051Z,21.20
2018-06-06T12:15:46.151Z,21.20
2018-06-06T12:18:13.248Z,19.60
2018-06-06T12:20:40.375Z,19.70
2018-06-06T12:23:07.450Z,19.80
2018-06-06T12:25:34.599Z,21.43
2018-06-06T12:28:01.752Z,20.23
2018-06-06T12:30:28.911Z,21.00
2018-06-06T12:32:55.985Z,20.60
2018-06-06T12:35:23.127Z,20.63
2018-06-06T12:37:50.253Z,21.57
2018-06-06T12:40:17.483Z,19.90
2018-06-06T12:42:45.044Z,20.60
2018-06-06T12:45:12.106Z,19.03
2018-06-06T12:47:39.307Z,20.00
2018-06-06T12:50:06.927Z,20.30
2018-06-06T12:52:34.686Z,20.93
2018-06-06T12:55:01.898Z,19.53
2018-06-06T12:57:29.010Z,20.53
2018-06-06T12:59:56.416Z,19.33
2018-06-06T13:02:24.331Z,19.43
2018-06-06T13:04:51.458Z,17.70
2018-06-06T13:07:18.667Z,19.60
2018-06-06T13:09:52.693Z,20.60
2018-06-06T13:12:19.933Z,19.63
2018-06-06T13:14:48.357Z,17.87
2018-06-06T13:17:16.239Z,18.03
2018-06-06T13:19:43.912Z,17.43
2018-06-06T13:22:11.170Z,19.33
2018-06-06T13:24:38.840Z,17.70
2018-06-06T13:27:06.024Z,18.90
2018-06-06T13:29:35.411Z,19.57
2018-06-06T13:32:02.521Z,24.07
2018-06-06T13:34:29.685Z,19.97
2018-06-06T13:36:56.943Z,19.20
2018-06-06T13:39:24.694Z,28.87
2018-06-06T13:41:51.748Z,18.67
2018-06-06T13:44:18.867Z,22.40
2018-06-06T13:46:46.094Z,21.80
2018-06-06T13:49:13.276Z,22.90
2018-06-06T13:51:40.864Z,17.80
2018-06-06T13:54:08.001Z,16.60
2018-06-06T13:56:35.190Z,16.33
2018-06-06T13:59:02.670Z,16.80
2018-06-06T14:01:30.253Z,17.67
2018-06-06T14:03:57.328Z,17.20
2018-06-06T14:06:24.437Z,16.77
2018-06-06T14:08:51.534Z,16.17
2018-06-06T14:11:18.879Z,17.67
2018-06-06T14:13:46.005Z,16.97
2018-06-06T14:16:13.194Z,19.20
2018-06-06T14:18:41.060Z,17.00
2018-06-06T14:21:08.210Z,17.17
2018-06-06T14:23:35.429Z,16.47
2018-06-06T14:26:02.788Z,18.10
2018-06-06T14:28:30.007Z,16.00
2018-06-06T14:30:57.156Z,17.00
2018-06-06T14:33:24.397Z,15.03
2018-06-06T14:35:52.084Z,15.03
2018-06-06T14:38:19.294Z,19.30
2018-06-06T14:40:46.893Z,15.00
2018-06-06T14:43:14.862Z,14.90
2018-06-06T14:45:43.603Z,15.10
2018-06-06T14:48:10.731Z,15.90
2018-06-06T14:50:49.508Z,16.13
2018-06-06T14:53:16.665Z,15.20
2018-06-06T14:55:44.015Z,16.30
2018-06-06T14:58:11.380Z,15.50
2018-06-06T15:00:38.745Z,14.67
2018-06-06T15:03:06.560Z,13.97
2018-06-06T15:05:33.698Z,13.33
2018-06-06T15:08:01.039Z,13.87
2018-06-06T15:10:28.653Z,14.20
2018-06-06T15:12:56.192Z,14.23
2018-06-06T15:15:23.999Z,13.73
2018-06-06T15:17:51.177Z,14.17
2018-06-06T15:20:18.251Z,13.87
2018-06-06T15:22:45.607Z,12.93
2018-06-06T15:25:13.076Z,15.90
2018-06-06T15:27:40.670Z,16.57
2018-06-06T15:30:07.948Z,13.70
2018-06-06T15:32:35.149Z,14.00
2018-06-06T15:35:02.808Z,14.20
2018-06-06T15:37:30.106Z,14.00
2018-06-06T15:39:57.777Z,13.47
2018-06-06T15:42:24.945Z,12.90
2018-06-06T15:44:52.865Z,13.13
2018-06-06T15:47:20.083Z,17.20
2018-06-06T15:49:47.173Z,12.13
2018-06-06T15:52:15.145Z,12.70
2018-06-06T15:54:42.616Z,12.00
2018-06-06T15:57:09.970Z,12.70
2018-06-06T15:59:37.618Z,12.67
2018-06-06T16:02:05.818Z,12.90
2018-06-06T16:04:33.097Z,12.90
2018-06-06T16:07:00.260Z,12.50
2018-06-06T16:09:28.088Z,12.60
2018-06-06T16:11:55.381Z,13.23
2018-06-06T16:14:25.765Z,11.90
2018-06-06T16:16:55.320Z,12.73
2018-06-06T16:19:22.503Z,13.57
2018-06-06T16:21:49.630Z,12.60
2018-06-06T16:24:16.745Z,12.53
2018-06-06T16:26:43.920Z,12.40
2018-06-06T16:29:11.288Z,13.93
2018-06-06T16:31:38.622Z,12.83
2018-06-06T16:34:05.805Z,11.50
2018-06-06T16:36:33.726Z,11.73
2018-06-06T16:39:00.891Z,14.83
2018-06-06T16:41:27.967Z,12.40
2018-06-06T16:43:55.187Z,13.07
2018-06-06T16:46:22.472Z,12.73
2018-06-06T16:48:49.697Z,13.03
2018-06-06T16:51:16.852Z,12.27
2018-06-06T16:53:44.428Z,12.80
2018-06-06T16:56:11.559Z,14.20
2018-06-06T16:58:39.160Z,12.63
2018-06-06T17:01:06.588Z,14.40
2018-06-06T17:03:33.832Z,13.37
2018-06-06T17:06:01.002Z,12.97
2018-06-06T17:08:28.931Z,11.87
2018-06-06T17:10:56.790Z,11.53
2018-06-06T17:13:24.044Z,12.60
2018-06-06T17:15:51.250Z,13.47
2018-06-06T17:18:18.374Z,11.97
2018-06-06T17:20:46.788Z,12.10
2018-06-06T17:23:15.043Z,11.90
2018-06-06T17:25:42.508Z,13.87
2018-06-06T17:28:09.649Z,12.70
2018-06-06T17:30:37.109Z,13.43
2018-06-06T17:33:04.712Z,12.13
2018-06-06T17:35:31.842Z,12.60
2018-06-06T17:37:58.995Z,12.27
2018-06-06T17:40:26.325Z,12.53
2018-06-06T17:42:53.719Z,12.23
2018-06-06T17:45:20.926Z,11.33
2018-06-06T17:47:48.091Z,11.73
2018-06-06T17:50:15.633Z,10.57
2018-06-06T17:52:42.898Z,11.17
2018-06-06T17:55:10.354Z,11.23
2018-06-06T17:57:37.858Z,10.03
2018-06-06T18:00:05.192Z,10.87
2018-06-06T18:02:32.235Z,10.80
2018-06-06T18:04:59.673Z,11.83
2018-06-06T18:07:26.890Z,12.33
2018-06-06T18:09:54.067Z,9.80
2018-06-06T18:12:21.237Z,11.17
2018-06-06T18:14:48.760Z,10.40
2018-06-06T18:17:15.958Z,10.80
2018-06-06T18:19:43.081Z,9.63
2018-06-06T18:22:10.613Z,10.77
2018-06-06T18:24:38.079Z,12.43
2018-06-06T18:27:05.862Z,11.43
2018-06-06T18:29:33.719Z,10.40
2018-06-06T18:32:00.898Z,9.83
2018-06-06T18:34:28.045Z,10.53
2018-06-06T18:36:55.188Z,10.73
2018-06-06T18:39:22.392Z,11.33
2018-06-06T18:41:49.632Z,9.93
2018-06-06T18:44:16.847Z,10.37
2018-06-06T18:46:44.002Z,10.97
2018-06-06T18:49:11.395Z,10.40
2018-06-06T18:51:38.564Z,11.53
2018-06-06T18:54:05.747Z,11.10
2018-06-06T18:56:33.298Z,11.40
2018-06-06T18:59:00.758Z,11.70
2018-06-06T19:01:27.880Z,11.17
2018-06-06T19:03:55.577Z,11.77
2018-06-06T19:06:22.727Z,11.03
2018-06-06T19:08:49.837Z,13.53
2018-06-06T19:11:17.025Z,11.43
2018-06-06T19:13:44.287Z,10.97
2018-06-06T19:16:11.436Z,12.57
2018-06-06T19:18:38.657Z,11.17
2018-06-06T19:21:05.834Z,11.87
2018-06-06T19:23:32.968Z,11.90
2018-06-06T19:26:00.145Z,13.80
2018-06-06T19:28:27.282Z,12.10
2018-06-06T19:30:54.565Z,12.27
2018-06-06T19:33:21.662Z,11.40
2018-06-06T19:35:49.506Z,11.40
2018-06-06T19:38:16.739Z,11.23
2018-06-06T19:40:43.852Z,11.13
2018-06-06T19:43:11.014Z,16.33
2018-06-06T19:45:38.725Z,15.17
2018-06-06T19:48:05.921Z,12.97
2018-06-06T19:50:33.089Z,12.23
2018-06-06T19:53:01.148Z,11.87
2018-06-06T19:55:28.443Z,11.87
2018-06-06T19:57:55.512Z,11.13
2018-06-06T20:00:23.003Z,11.73
2018-06-06T20:02:50.169Z,13.00
2018-06-06T20:05:17.357Z,12.23
2018-06-06T20:07:44.483Z,14.93
2018-06-06T20:10:11.663Z,17.77
2018-06-06T20:12:39.624Z,15.00
2018-06-06T20:15:06.706Z,11.93
2018-06-06T20:17:33.820Z,12.57
2018-06-06T20:20:01.024Z,13.13
2018-06-06T20:22:28.167Z,13.57
2018-06-06T20:24:55.758Z,13.87
2018-06-06T20:27:23.671Z,14.03
2018-06-06T20:29:50.811Z,13.07
2018-06-06T20:32:17.982Z,13.93
2018-06-06T20:34:45.034Z,13.43
2018-06-06T20:37:12.097Z,16.37
2018-06-06T20:39:39.305Z,13.83
2018-06-06T20:42:06.630Z,14.20
2018-06-06T20:44:33.729Z,13.30
2018-06-06T20:47:00.807Z,13.27
2018-06-06T20:49:28.000Z,14.20
2018-06-06T20:51:55.130Z,12.90
2018-06-06T20:54:22.228Z,13.97
2018-06-06T20:56:49.267Z,12.67
2018-06-06T20:59:16.407Z,14.37
2018-06-06T21:01:43.504Z,14.23
2018-06-06T21:04:10.600Z,14.60
2018-06-06T21:06:38.028Z,13.83
2018-06-06T21:09:05.762Z,14.80
2018-06-06T21:11:32.897Z,14.60
2018-06-06T21:14:00.009Z,15.17
2018-06-06T21:16:27.066Z,16.00
2018-06-06T21:18:54.406Z,14.80
2018-06-06T21:21:21.530Z,18.00
2018-06-06T21:23:48.547Z,17.10
2018-06-06T21:26:15.548Z,16.13
2018-06-06T21:28:42.649Z,16.20
2018-06-06T21:31:09.677Z,16.97
2018-06-06T21:33:36.786Z,16.93
2018-06-06T21:36:03.994Z,16.60
2018-06-06T21:38:31.069Z,17.17
2018-06-06T21:40:58.130Z,17.30
2018-06-06T21:43:25.175Z,15.93
2018-06-06T21:45:52.495Z,16.73
2018-06-06T21:48:19.573Z,16.47
2018-06-06T21:50:46.772Z,15.90
2018-06-06T21:53:13.854Z,16.43
2018-06-06T21:55:41.025Z,15.73
2018-06-06T21:58:08.710Z,15.40
2018-06-06T22:00:35.884Z,15.70
2018-06-06T22:03:03.056Z,17.43
2018-06-06T22:05:30.105Z,17.67
2018-06-06T22:07:57.175Z,16.03
2018-06-06T22:10:24.294Z,17.37
2018-06-06T22:12:51.444Z,16.80
2018-06-06T22:15:18.489Z,16.70
2018-06-06T22:17:45.577Z,16.67
2018-06-06T22:20:12.673Z,16.47
2018-06-06T22:22:39.763Z,17.67
2018-06-06T22:25:06.819Z,17.40
2018-06-06T22:27:33.837Z,16.93
2018-06-06T22:30:00.900Z,15.97
2018-06-06T22:32:27.946Z,17.63
2018-06-06T22:34:55.384Z,16.10
2018-06-06T22:37:22.454Z,16.70
2018-06-06T22:39:49.460Z,17.13
2018-06-06T22:42:16.523Z,15.60
2018-06-06T22:44:43.598Z,16.10
2018-06-06T22:47:10.767Z,16.93
2018-06-06T22:49:37.805Z,18.27
2018-06-06T22:52:05.080Z,17.60
2018-06-06T22:54:32.145Z,20.40
2018-06-06T22:56:59.213Z,17.70
2018-06-06T22:59:26.197Z,17.47
2018-06-06T23:01:53.214Z,17.53
2018-06-06T23:04:20.273Z,16.60
2018-06-06T23:06:47.309Z,16.73
2018-06-06T23:09:14.348Z,17.03
2018-06-06T23:11:41.380Z,17.73
2018-06-06T23:14:08.654Z,16.67
2018-06-06T23:16:35.657Z,16.57
2018-06-06T23:19:02.725Z,19.33
2018-06-06T23:21:29.791Z,16.97
2018-06-06T23:23:56.814Z,17.23
2018-06-06T23:26:23.844Z,17.07
2018-06-06T23:28:50.931Z,15.77
2018-06-06T23:31:18.556Z,16.63
2018-06-06T23:33:45.671Z,15.80
2018-06-06T23:36:12.756Z,16.53
2018-06-06T23:38:39.928Z,16.13
2018-06-06T23:41:07.000Z,16.10
2018-06-06T23:43:34.083Z,16.53
2018-06-06T23:46:01.265Z,25.53
2018-06-06T23:48:28.329Z,17.70
2018-06-06T23:50:55.382Z,16.53
2018-06-06T23:53:22.485Z,16.47
2018-06-06T23:55:49.543Z,16.07
2018-06-06T23:58:16.620Z,17.00
